Time;durP1;ratioP1;P1;durP2;ratioP2;P2;SDS_P1;SDS_P2;PMS_P1;PMS_P2;Temp;Humidity;BMP_temperature;BMP_pressure;BME280_temperature;BME280_humidity;BME280_pressure;Samples;Min_cycle;Max_cycle;Signal;HPM_P1;HPM_P2
2021/04/27 00:01:43;;;;;;;11.73;10.57;;;11.40;99.90;;;;;;5082522;28;20274;-91
2021/04/27 00:04:10;;;;;;;15.00;13.43;;;11.40;99.90;;;;;;5085807;28;20628;-91
2021/04/27 00:06:37;;;;;;;13.15;11.77;;;11.40;99.90;;;;;;5090965;28;20220;-92
2021/04/27 00:09:06;;;;;;;12.23;11.05;;;11.30;99.90;;;;;;5089139;28;20222;-91
2021/04/27 00:11:32;;;;;;;11.55;10.35;;;11.30;99.90;;;;;;5086809;28;20230;-90
2021/04/27 00:13:59;;;;;;;9.48;8.57;;;11.40;99.90;;;;;;5084300;28;20217;-91
2021/04/27 00:16:27;;;;;;;8.88;8.05;;;11.40;99.90;;;;;;5085181;28;20221;-90
2021/04/27 00:18:53;;;;;;;9.52;8.63;;;11.50;99.90;;;;;;5083709;27;20233;-91
2021/04/27 00:21:20;;;;;;;11.77;10.50;;;11.50;99.90;;;;;;5088629;28;20228;-91
2021/04/27 00:23:46;;;;;;;14.15;12.75;;;11.50;99.90;;;;;;5088862;28;20237;-91
2021/04/27 00:26:14;;;;;;;12.52;11.25;;;11.40;99.90;;;;;;5086061;28;20225;-91
2021/04/27 00:28:41;;;;;;;11.68;10.52;;;11.30;99.90;;;;;;5084735;28;20221;-91
2021/04/27 00:31:07;;;;;;;12.48;11.18;;;11.40;99.90;;;;;;5077543;28;20725;-91
2021/04/27 00:33:34;;;;;;;11.07;9.98;;;11.40;99.90;;;;;;5084425;28;21469;-91
2021/04/27 00:36:01;;;;;;;10.23;9.32;;;11.40;99.90;;;;;;5081301;28;20214;-92
2021/04/27 00:38:27;;;;;;;9.57;8.75;;;11.50;99.90;;;;;;5090113;28;20225;-91
2021/04/27 00:40:54;;;;;;;10.50;9.48;;;11.40;99.90;;;;;;5089649;28;20679;-91
2021/04/27 00:43:22;;;;;;;10.95;9.63;;;11.40;99.90;;;;;;5086450;28;20225;-91
2021/04/27 00:45:48;;;;;;;11.68;10.55;;;11.50;99.90;;;;;;5091283;27;20676;-91
2021/04/27 00:48:15;;;;;;;10.43;9.45;;;11.50;99.90;;;;;;5087622;28;20226;-91
2021/04/27 00:50:42;;;;;;;10.57;9.57;;;11.50;99.90;;;;;;5072451;28;20217;-91
2021/04/27 00:53:10;;;;;;;9.20;8.27;;;11.50;99.90;;;;;;5090344;28;20228;-91
2021/04/27 00:55:37;;;;;;;10.00;9.05;;;11.50;99.90;;;;;;5084373;28;20221;-91
2021/04/27 00:58:04;;;;;;;9.70;8.80;;;11.50;99.90;;;;;;5071403;28;20218;-91
2021/04/27 01:00:34;;;;;;;9.80;8.80;;;11.50;99.90;;;;;;5070627;28;20218;-92
2021/04/27 01:03:01;;;;;;;9.70;8.75;;;11.50;99.90;;;;;;5081896;28;20233;-92
2021/04/27 01:05:30;;;;;;;10.80;9.70;;;11.50;99.90;;;;;;5073400;28;20237;-92
2021/04/27 01:08:05;;;;;;;11.00;10.00;;;11.50;99.90;;;;;;5070386;28;20213;-92
2021/04/27 01:10:40;;;;;;;12.30;11.10;;;11.40;99.90;;;;;;5084526;28;20225;-92
2021/04/27 01:13:13;;;;;;;20.08;15.75;;;11.30;99.90;;;;;;5086538;28;20221;-91
2021/04/27 01:15:42;;;;;;;11.35;10.18;;;11.20;99.90;;;;;;5087803;28;20225;-91
2021/04/27 01:18:11;;;;;;;12.02;10.82;;;11.20;99.90;;;;;;5080769;28;20218;-91
2021/04/27 01:20:43;;;;;;;10.73;9.63;;;11.10;99.90;;;;;;5070175;28;20221;-91
2021/04/27 01:23:19;;;;;;;10.10;9.20;;;11.20;99.90;;;;;;5069819;28;20237;-92
2021/04/27 01:25:55;;;;;;;10.10;9.10;;;11.20;99.90;;;;;;5070931;28;20257;-89
2021/04/27 01:28:26;;;;;;;9.52;8.63;;;11.20;99.90;;;;;;5086728;28;20221;-91
2021/04/27 01:30:53;;;;;;;10.00;9.07;;;11.20;99.90;;;;;;5079818;28;20344;-93
2021/04/27 01:33:22;;;;;;;8.98;8.18;;;11.30;99.90;;;;;;5076534;28;20240;-91
2021/04/27 01:35:50;;;;;;;8.13;7.40;;;11.30;99.90;;;;;;5081279;28;20218;-92
2021/04/27 01:38:20;;;;;;;9.25;8.40;;;11.30;99.90;;;;;;5083786;28;20275;-91
2021/04/27 01:40:47;;;;;;;9.05;8.18;;;11.30;99.90;;;;;;5082431;28;20222;-91
2021/04/27 01:43:14;;;;;;;11.88;10.63;;;11.30;99.90;;;;;;5086840;28;20237;-92
2021/04/27 01:45:42;;;;;;;11.43;10.43;;;11.30;99.90;;;;;;5084030;28;20232;-92
2021/04/27 01:48:09;;;;;;;14.63;12.35;;;11.30;99.90;;;;;;5083147;28;20238;-92
2021/04/27 01:50:36;;;;;;;11.63;10.52;;;11.30;99.90;;;;;;5091105;28;20230;-91
2021/04/27 01:53:03;;;;;;;10.15;9.15;;;11.30;99.90;;;;;;5086849;28;20233;-92
2021/04/27 01:55:30;;;;;;;9.00;8.15;;;11.20;99.90;;;;;;5085085;28;20222;-91
2021/04/27 01:57:57;;;;;;;11.40;9.05;;;11.30;99.90;;;;;;5073602;28;20218;-90
2021/04/27 02:00:25;;;;;;;8.32;7.47;;;11.30;99.90;;;;;;5081996;28;20646;-91
2021/04/27 02:02:52;;;;;;;8.73;7.82;;;11.30;99.90;;;;;;5078118;28;20213;-92
2021/04/27 02:05:19;;;;;;;11.55;10.25;;;11.30;99.90;;;;;;5087781;28;20714;-92
2021/04/27 02:07:46;;;;;;;12.15;11.00;;;11.30;99.90;;;;;;5084034;28;20222;-92
2021/04/27 02:10:14;;;;;;;10.93;9.82;;;11.20;99.90;;;;;;5081315;28;20320;-91
2021/04/27 02:12:45;;;;;;;11.35;10.25;;;11.20;99.90;;;;;;5082905;28;20230;-90
2021/04/27 02:15:14;;;;;;;10.93;9.82;;;11.10;99.90;;;;;;5082533;28;20304;-91
2021/04/27 02:17:47;;;;;;;10.85;9.40;;;11.10;99.90;;;;;;5074630;28;20272;-92
2021/04/27 02:20:16;;;;;;;10.77;9.68;;;11.10;99.90;;;;;;5073494;28;20217;-93
2021/04/27 02:22:45;;;;;;;11.30;10.13;;;11.00;99.90;;;;;;5082354;28;20228;-92
2021/04/27 02:25:13;;;;;;;10.43;9.32;;;11.00;99.90;;;;;;5081958;28;20248;-93
2021/04/27 02:27:41;;;;;;;11.25;9.15;;;11.10;99.90;;;;;;5081449;28;20239;-92
2021/04/27 02:30:12;;;;;;;11.38;10.25;;;11.10;99.90;;;;;;5090030;28;20231;-92
2021/04/27 02:32:39;;;;;;;10.38;9.38;;;11.10;99.90;;;;;;5068331;28;20218;-92
2021/04/27 02:35:09;;;;;;;11.27;10.07;;;11.00;99.90;;;;;;5069905;28;20266;-91
2021/04/27 02:37:37;;;;;;;11.23;10.15;;;11.00;99.90;;;;;;5065922;28;20667;-91
2021/04/27 02:40:06;;;;;;;11.45;10.35;;;11.00;99.90;;;;;;5076241;28;20222;-92
2021/04/27 02:42:35;;;;;;;11.77;10.48;;;11.00;99.90;;;;;;5075761;28;20233;-90
2021/04/27 02:45:02;;;;;;;13.77;12.27;;;11.00;99.90;;;;;;5078013;28;20228;-91
2021/04/27 02:47:28;;;;;;;14.80;13.27;;;11.00;99.90;;;;;;5064666;28;20234;-92
2021/04/27 02:49:55;;;;;;;13.38;12.07;;;10.90;99.90;;;;;;5073588;28;20213;-92
2021/04/27 02:52:22;;;;;;;12.18;11.02;;;10.90;99.90;;;;;;5072198;28;20222;-92
2021/04/27 02:54:49;;;;;;;15.13;12.77;;;10.90;99.90;;;;;;5091050;28;20217;-92
2021/04/27 02:57:16;;;;;;;11.02;10.00;;;10.90;99.90;;;;;;5088383;28;20229;-92
2021/04/27 02:59:43;;;;;;;11.73;10.63;;;10.90;99.90;;;;;;5086325;28;20225;-91
2021/04/27 03:02:09;;;;;;;10.75;9.75;;;10.90;99.90;;;;;;5089691;28;20228;-92
2021/04/27 03:04:36;;;;;;;11.40;10.30;;;10.90;99.90;;;;;;5079086;28;20233;-91
2021/04/27 03:07:03;;;;;;;11.55;10.45;;;10.90;99.90;;;;;;5070651;28;20230;-92
2021/04/27 03:09:30;;;;;;;11.23;10.15;;;10.90;99.90;;;;;;5072896;28;20225;-91
2021/04/27 03:11:57;;;;;;;11.85;10.65;;;10.90;99.90;;;;;;5073253;28;20230;-91
2021/04/27 03:14:24;;;;;;;10.77;9.77;;;11.00;99.90;;;;;;5061796;28;20608;-91
2021/04/27 03:16:51;;;;;;;12.80;11.50;;;11.00;99.90;;;;;;5070058;28;20222;-92
2021/04/27 03:19:17;;;;;;;11.50;10.40;;;10.90;99.90;;;;;;5077843;28;20632;-91
2021/04/27 03:21:44;;;;;;;10.23;9.32;;;10.90;99.90;;;;;;5084281;28;20692;-89
2021/04/27 03:24:11;;;;;;;10.85;9.70;;;10.90;99.90;;;;;;5080857;28;20834;-91
2021/04/27 03:26:38;;;;;;;11.57;10.40;;;10.90;99.90;;;;;;5078095;28;20225;-92
2021/04/27 03:29:05;;;;;;;11.18;9.93;;;10.90;99.90;;;;;;5081642;28;20232;-92
2021/04/27 03:31:32;;;;;;;10.43;9.43;;;10.90;99.90;;;;;;5082361;28;20588;-92
2021/04/27 03:33:59;;;;;;;9.27;8.38;;;10.90;99.90;;;;;;5085341;28;20597;-90
2021/04/27 03:36:26;;;;;;;10.27;9.38;;;11.00;99.90;;;;;;5084303;28;20221;-91
2021/04/27 03:38:53;;;;;;;9.55;8.55;;;10.90;99.90;;;;;;5084657;28;20225;-90
2021/04/27 03:41:19;;;;;;;9.25;8.43;;;11.00;99.90;;;;;;5085081;28;20218;-91
2021/04/27 03:43:46;;;;;;;9.90;8.90;;;11.00;99.90;;;;;;5078779;28;20229;-91
2021/04/27 03:46:13;;;;;;;10.55;9.55;;;11.00;99.90;;;;;;5085338;28;20234;-91
2021/04/27 03:48:40;;;;;;;10.50;9.52;;;11.00;99.90;;;;;;5081859;28;20228;-92
2021/04/27 03:51:07;;;;;;;11.20;10.20;;;10.90;99.90;;;;;;5089561;28;20221;-91
2021/04/27 03:53:34;;;;;;;17.15;15.27;;;11.00;99.90;;;;;;5078824;28;20244;-92
2021/04/27 03:56:00;;;;;;;14.65;13.30;;;10.90;99.90;;;;;;5078387;28;20225;-91
2021/04/27 03:58:27;;;;;;;14.50;13.02;;;10.80;99.90;;;;;;5095660;28;20702;-92
2021/04/27 04:00:53;;;;;;;13.25;11.93;;;10.70;99.90;;;;;;5081939;28;20226;-91
2021/04/27 04:03:21;;;;;;;14.20;12.70;;;10.60;99.90;;;;;;5078136;28;20252;-91
2021/04/27 04:05:48;;;;;;;12.43;11.27;;;10.60;99.90;;;;;;5073197;28;20229;-92
2021/04/27 04:08:15;;;;;;;12.65;11.38;;;10.60;99.90;;;;;;5056936;28;20646;-91
2021/04/27 04:10:42;;;;;;;12.77;11.55;;;10.60;99.90;;;;;;5061634;28;20297;-93
2021/04/27 04:13:08;;;;;;;14.90;13.25;;;10.60;99.90;;;;;;5067437;28;20222;-91
2021/04/27 04:15:35;;;;;;;12.48;11.30;;;10.60;99.90;;;;;;5088863;28;20221;-91
2021/04/27 04:18:02;;;;;;;13.25;11.95;;;10.70;99.90;;;;;;5083476;28;20240;-92
2021/04/27 04:20:29;;;;;;;12.88;11.57;;;10.70;99.90;;;;;;5072665;28;20230;-91
2021/04/27 04:22:56;;;;;;;10.43;9.52;;;10.70;99.90;;;;;;5072247;28;20274;-91
2021/04/27 04:25:23;;;;;;;11.60;10.05;;;10.70;99.90;;;;;;5081866;28;20233;-91
2021/04/27 04:27:49;;;;;;;12.50;11.20;;;10.70;99.90;;;;;;5081868;28;20224;-90
2021/04/27 04:30:19;;;;;;;11.35;10.30;;;10.70;99.90;;;;;;5077803;28;20287;-92
2021/04/27 04:32:46;;;;;;;11.77;10.73;;;10.70;99.90;;;;;;5079091;28;20693;-92
2021/04/27 04:35:15;;;;;;;12.68;11.48;;;10.70;99.90;;;;;;5080569;28;20217;-93
2021/04/27 04:37:42;;;;;;;10.77;9.77;;;10.70;99.90;;;;;;5083986;28;20224;-92
2021/04/27 04:40:11;;;;;;;12.18;10.98;;;10.70;99.90;;;;;;5079305;28;20230;-92
2021/04/27 04:42:38;;;;;;;13.50;11.20;;;10.60;99.90;;;;;;5072557;28;20228;-90
2021/04/27 04:45:07;;;;;;;12.43;11.07;;;10.60;99.90;;;;;;5069346;28;20248;-91
2021/04/27 04:47:34;;;;;;;13.65;12.43;;;10.60;99.90;;;;;;5086724;27;20545;-91
2021/04/27 04:50:01;;;;;;;13.88;12.45;;;10.60;99.90;;;;;;5088970;28;20259;-93
2021/04/27 04:52:28;;;;;;;15.25;13.77;;;10.60;99.90;;;;;;5091420;27;20221;-90
2021/04/27 04:54:56;;;;;;;14.38;12.95;;;10.60;99.90;;;;;;5087338;28;20228;-92
2021/04/27 04:57:23;;;;;;;14.93;13.43;;;10.50;99.90;;;;;;5087269;28;20230;-92
2021/04/27 04:59:49;;;;;;;14.90;13.55;;;10.50;99.90;;;;;;5094140;27;20252;-91
2021/04/27 05:02:16;;;;;;;14.02;12.75;;;10.50;99.90;;;;;;5086750;28;20275;-92
2021/04/27 05:04:44;;;;;;;13.57;12.15;;;10.50;99.90;;;;;;5090909;28;20237;-92
2021/04/27 05:07:12;;;;;;;19.92;17.88;;;10.50;99.90;;;;;;5076790;27;20220;-91
2021/04/27 05:09:39;;;;;;;17.27;15.48;;;10.50;99.90;;;;;;5092690;27;20214;-92
2021/04/27 05:12:08;;;;;;;18.77;16.90;;;10.40;99.90;;;;;;5087726;28;20236;-92
2021/04/27 05:14:37;;;;;;;22.45;19.63;;;10.40;99.90;;;;;;5081573;28;20275;-92
2021/04/27 05:17:05;;;;;;;17.48;15.82;;;10.40;99.90;;;;;;5074824;28;20226;-92
2021/04/27 05:19:32;;;;;;;16.38;14.77;;;10.30;99.90;;;;;;5066655;28;20222;-91
2021/04/27 05:22:00;;;;;;;14.93;13.43;;;10.40;99.90;;;;;;5072808;28;20229;-91
2021/04/27 05:24:27;;;;;;;16.05;14.38;;;10.40;99.90;;;;;;5079389;28;20225;-92
2021/04/27 05:26:53;;;;;;;16.10;14.60;;;10.40;99.90;;;;;;5085757;28;20221;-92
2021/04/27 05:29:22;;;;;;;15.63;14.10;;;10.40;99.90;;;;;;5085328;28;20225;-92
2021/04/27 05:31:49;;;;;;;14.90;13.50;;;10.40;99.90;;;;;;5085771;28;20221;-91
2021/04/27 05:34:16;;;;;;;15.57;14.07;;;10.40;99.90;;;;;;5070842;28;20233;-92
2021/04/27 05:36:42;;;;;;;16.85;15.15;;;10.40;99.90;;;;;;5064582;28;20218;-92
2021/04/27 05:39:09;;;;;;;21.35;19.10;;;10.40;99.90;;;;;;5081026;28;20217;-93
2021/04/27 05:41:36;;;;;;;19.85;17.85;;;10.40;99.90;;;;;;5071762;28;20237;-91
2021/04/27 05:44:03;;;;;;;20.42;18.40;;;10.40;99.90;;;;;;5071695;28;20226;-93
2021/04/27 05:46:31;;;;;;;17.48;15.77;;;10.40;99.90;;;;;;5073423;28;20271;-92
2021/04/27 05:48:57;;;;;;;18.25;16.55;;;10.40;99.90;;;;;;5086284;28;20240;-92
2021/04/27 05:51:24;;;;;;;16.50;14.90;;;10.40;99.90;;;;;;5085234;28;20225;-92
2021/04/27 05:53:51;;;;;;;18.83;16.85;;;10.40;99.90;;;;;;5086925;28;20221;-92
2021/04/27 05:56:17;;;;;;;19.30;17.38;;;10.50;99.90;;;;;;5088009;28;20696;-93
2021/04/27 05:58:44;;;;;;;18.27;16.52;;;10.40;99.90;;;;;;5089782;27;20213;-92
2021/04/27 06:01:11;;;;;;;16.02;14.45;;;10.50;99.90;;;;;;5084459;28;20245;-92
2021/04/27 06:03:39;;;;;;;17.13;15.45;;;10.50;99.90;;;;;;5067621;28;20226;-92
2021/04/27 06:06:06;;;;;;;16.45;14.85;;;10.50;99.90;;;;;;5069023;28;20283;-91
2021/04/27 06:08:34;;;;;;;16.05;14.40;;;10.50;99.90;;;;;;5080123;28;20229;-91
2021/04/27 06:11:01;;;;;;;15.75;14.25;;;10.50;99.90;;;;;;5077781;28;20222;-92
2021/04/27 06:13:28;;;;;;;16.88;15.27;;;10.50;99.90;;;;;;5068731;28;20234;-91
2021/04/27 06:15:54;;;;;;;17.27;15.50;;;10.50;99.90;;;;;;5076090;28;20217;-91
2021/04/27 06:18:21;;;;;;;18.08;16.23;;;10.50;99.90;;;;;;5068778;28;20218;-92
2021/04/27 06:20:48;;;;;;;20.48;18.27;;;10.50;99.90;;;;;;5070118;28;20218;-93
2021/04/27 06:23:15;;;;;;;17.98;16.13;;;10.50;99.90;;;;;;5082153;28;20225;-93
2021/04/27 06:25:42;;;;;;;20.05;16.48;;;10.50;99.90;;;;;;5067499;28;20230;-92
2021/04/27 06:28:10;;;;;;;20.48;18.38;;;10.50;99.90;;;;;;5067116;28;20230;-93
2021/04/27 06:30:37;;;;;;;19.58;17.48;;;10.50;99.90;;;;;;5071276;27;20250;-93
2021/04/27 06:33:03;;;;;;;19.48;17.40;;;10.50;99.90;;;;;;5076581;28;20612;-92
2021/04/27 06:35:30;;;;;;;20.73;18.60;;;10.60;99.90;;;;;;5078059;28;20618;-93
2021/04/27 06:37:57;;;;;;;20.25;17.85;;;10.60;99.90;;;;;;5065658;28;20214;-92
2021/04/27 06:40:24;;;;;;;18.42;16.63;;;10.60;99.90;;;;;;5059774;28;20233;-91
2021/04/27 06:42:51;;;;;;;19.00;16.80;;;10.60;99.90;;;;;;5056232;28;20274;-90
2021/04/27 06:45:18;;;;;;;19.35;17.38;;;10.60;99.90;;;;;;5058684;28;20632;-90
2021/04/27 06:47:46;;;;;;;17.90;16.20;;;10.60;99.90;;;;;;5065108;28;20232;-92
2021/04/27 06:50:14;;;;;;;19.67;17.67;;;10.60;99.90;;;;;;5072571;28;20245;-91
2021/04/27 06:52:41;;;;;;;18.00;16.20;;;10.70;99.90;;;;;;5065343;28;20218;-92
2021/04/27 06:55:10;;;;;;;17.48;15.68;;;10.80;99.90;;;;;;5059488;28;20237;-91
2021/04/27 06:57:37;;;;;;;16.42;14.73;;;10.80;99.90;;;;;;5068260;28;20222;-93
2021/04/27 07:00:05;;;;;;;17.10;15.50;;;10.80;99.90;;;;;;5068441;28;20225;-91
2021/04/27 07:02:31;;;;;;;19.35;17.45;;;10.80;99.90;;;;;;5071428;28;20813;-92
2021/04/27 07:04:58;;;;;;;19.00;17.20;;;10.80;99.90;;;;;;5074445;28;20286;-92
2021/04/27 07:07:25;;;;;;;17.70;16.02;;;10.80;99.90;;;;;;5081259;28;20228;-91
2021/04/27 07:09:51;;;;;;;19.30;17.30;;;10.80;99.90;;;;;;5081106;27;20217;-91
2021/04/27 07:12:21;;;;;;;22.15;19.80;;;10.90;99.90;;;;;;5079938;28;20221;-91
2021/04/27 07:14:48;;;;;;;22.15;19.95;;;10.90;99.90;;;;;;5072984;28;20209;-91
2021/04/27 07:17:14;;;;;;;22.20;19.92;;;10.90;99.90;;;;;;5079594;28;20787;-91
2021/04/27 07:19:41;;;;;;;19.73;17.77;;;10.90;99.90;;;;;;5081836;28;20240;-92
2021/04/27 07:22:08;;;;;;;20.73;18.73;;;10.90;99.90;;;;;;5074992;28;20229;-92
2021/04/27 07:24:35;;;;;;;21.17;18.98;;;11.00;99.90;;;;;;5070344;28;20218;-92
2021/04/27 07:27:02;;;;;;;18.83;16.92;;;11.00;99.90;;;;;;5063135;28;20752;-90
2021/04/27 07:29:29;;;;;;;21.23;19.00;;;11.10;99.90;;;;;;5075378;28;20319;-91
2021/04/27 07:31:56;;;;;;;26.60;23.80;;;11.10;99.90;;;;;;5067404;28;20979;-94
2021/04/27 07:34:23;;;;;;;24.17;20.60;;;11.00;99.90;;;;;;5071875;28;20805;-94
2021/04/27 07:36:50;;;;;;;25.67;23.08;;;11.00;99.90;;;;;;5071171;28;21001;-91
2021/04/27 07:39:16;;;;;;;22.65;20.05;;;11.00;99.90;;;;;;5074602;28;20341;-90
2021/04/27 07:41:45;;;;;;;24.55;21.92;;;11.00;99.90;;;;;;5067973;28;20209;-91
2021/04/27 07:44:12;;;;;;;23.90;20.15;;;11.00;99.90;;;;;;5070391;28;20205;-91
2021/04/27 07:46:40;;;;;;;21.42;19.25;;;11.00;99.90;;;;;;5066627;28;20214;-89
2021/04/27 07:49:07;;;;;;;22.58;20.20;;;11.10;99.90;;;;;;5063509;28;20198;-91
2021/04/27 07:51:33;;;;;;;21.98;19.67;;;11.20;99.90;;;;;;5066411;28;20213;-90
2021/04/27 07:54:00;;;;;;;25.85;21.90;;;11.20;99.90;;;;;;5062693;28;20218;-92
2021/04/27 07:56:29;;;;;;;23.45;20.98;;;11.30;99.90;;;;;;5063089;28;20251;-92
2021/04/27 07:58:57;;;;;;;24.23;20.85;;;11.30;99.90;;;;;;5069503;28;20276;-91
2021/04/27 08:01:24;;;;;;;22.58;20.23;;;11.40;99.90;;;;;;5064090;28;20308;-92
2021/04/27 08:03:51;;;;;;;26.95;22.67;;;11.40;99.90;;;;;;5066338;28;20735;-92
2021/04/27 08:06:18;;;;;;;23.05;20.70;;;11.50;99.90;;;;;;5069912;28;20225;-92
2021/04/27 08:08:45;;;;;;;24.52;21.23;;;11.60;99.90;;;;;;5069176;28;20606;-91
2021/04/27 08:11:11;;;;;;;22.70;20.40;;;11.60;99.90;;;;;;5066658;28;20600;-91
2021/04/27 08:13:39;;;;;;;22.35;20.05;;;11.70;99.90;;;;;;5071408;28;20579;-93
2021/04/27 08:16:06;;;;;;;24.02;19.80;;;11.80;99.90;;;;;;5067468;28;20309;-91
2021/04/27 08:18:36;;;;;;;21.13;18.88;;;11.90;99.90;;;;;;5066967;28;20331;-93
2021/04/27 08:21:05;;;;;;;24.17;21.58;;;12.00;99.90;;;;;;5067062;28;20199;-92
2021/04/27 08:23:32;;;;;;;23.65;19.20;;;12.10;99.90;;;;;;5063814;28;20194;-90
2021/04/27 08:25:59;;;;;;;22.98;20.67;;;12.10;99.90;;;;;;5071225;28;21090;-90
2021/04/27 08:28:27;;;;;;;20.40;18.25;;;12.20;99.90;;;;;;5073405;28;20285;-91
2021/04/27 08:30:54;;;;;;;25.52;22.80;;;12.20;99.90;;;;;;5075871;28;20259;-91
2021/04/27 08:33:21;;;;;;;25.25;22.17;;;12.10;99.90;;;;;;5072685;28;20214;-92
2021/04/27 08:35:48;;;;;;;26.80;23.05;;;12.10;99.90;;;;;;5071218;28;20641;-92
2021/04/27 08:38:16;;;;;;;26.85;23.98;;;12.10;99.90;;;;;;5073690;28;20762;-90
2021/04/27 08:40:44;;;;;;;26.80;23.67;;;12.10;99.90;;;;;;5073997;28;20256;-92
2021/04/27 08:43:10;;;;;;;22.52;19.92;;;12.10;99.90;;;;;;5083724;28;20213;-90
2021/04/27 08:45:37;;;;;;;25.52;23.00;;;12.10;99.90;;;;;;5070174;28;20218;-91
2021/04/27 08:48:05;;;;;;;20.92;18.67;;;12.20;99.90;;;;;;5068310;28;20204;-91
2021/04/27 08:50:31;;;;;;;20.70;18.58;;;12.30;99.90;;;;;;5068629;28;20628;-91
2021/04/27 08:52:58;;;;;;;18.67;16.88;;;12.40;99.90;;;;;;5070514;28;20205;-91
2021/04/27 08:55:26;;;;;;;19.88;17.75;;;12.60;99.90;;;;;;5076363;28;20206;-90
2021/04/27 08:57:53;;;;;;;25.83;22.48;;;12.60;99.90;;;;;;5068354;28;20194;-93
2021/04/27 09:00:22;;;;;;;24.98;22.38;;;12.70;99.90;;;;;;5069763;28;20231;-92
2021/04/27 09:02:55;;;;;;;25.88;23.27;;;12.60;99.90;;;;;;5069012;28;20297;-92
2021/04/27 09:05:23;;;;;;;23.80;21.40;;;12.60;99.90;;;;;;5069141;28;20214;-91
2021/04/27 09:07:52;;;;;;;21.65;19.45;;;12.60;99.90;;;;;;5068283;28;20214;-91
2021/04/27 09:10:23;;;;;;;19.88;17.90;;;12.70;99.90;;;;;;5067873;28;20213;-91
2021/04/27 09:12:52;;;;;;;19.92;17.90;;;12.80;99.90;;;;;;5070788;28;20255;-91
2021/04/27 09:15:29;;;;;;;20.90;18.85;;;13.00;99.90;;;;;;5074835;28;20209;-91
2021/04/27 09:17:57;;;;;;;23.45;20.90;;;13.10;99.90;;;;;;5074306;28;20206;-91
2021/04/27 09:20:23;;;;;;;23.63;20.98;;;13.30;99.90;;;;;;5071396;28;20201;-91
2021/04/27 09:22:50;;;;;;;24.65;22.00;;;13.40;99.90;;;;;;5069040;28;20242;-91
2021/04/27 09:25:24;;;;;;;21.33;19.15;;;13.50;99.90;;;;;;5073295;28;20214;-91
2021/04/27 09:27:52;;;;;;;22.48;19.05;;;13.50;99.90;;;;;;5071152;28;20206;-91
2021/04/27 09:30:22;;;;;;;22.70;20.42;;;13.60;99.90;;;;;;5073442;28;20202;-91
2021/04/27 09:32:54;;;;;;;22.98;20.38;;;13.70;99.90;;;;;;5069960;28;20614;-90
2021/04/27 09:35:26;;;;;;;18.77;16.95;;;13.80;99.90;;;;;;5071213;28;20198;-92
2021/04/27 09:38:17;;;;;;;22.33;19.92;;;13.90;99.90;;;;;;5067409;28;20205;-92
2021/04/27 09:40:53;;;;;;;22.45;20.17;;;14.00;99.90;;;;;;5068538;28;20252;-92
2021/04/27 09:43:22;;;;;;;22.83;19.05;;;14.00;99.90;;;;;;5067402;28;20238;-93
2021/04/27 09:45:51;;;;;;;20.73;18.55;;;14.00;99.90;;;;;;5067203;28;20231;-92
2021/04/27 09:48:34;;;;;;;18.25;16.35;;;14.00;99.90;;;;;;5068935;28;20266;-91
2021/04/27 09:51:18;;;;;;;16.80;15.20;;;13.90;99.90;;;;;;5072216;28;20562;-91
2021/04/27 09:53:46;;;;;;;16.40;14.70;;;13.90;99.90;;;;;;5069014;28;20605;-91
2021/04/27 09:56:32;;;;;;;14.68;13.27;;;14.10;99.90;;;;;;5070732;28;20754;-91
2021/04/27 09:59:03;;;;;;;13.00;11.68;;;14.30;99.90;;;;;;5067782;28;20202;-91
2021/04/27 10:01:31;;;;;;;13.68;12.38;;;14.60;99.90;;;;;;5067607;28;20256;-92
2021/04/27 10:03:58;;;;;;;15.10;13.55;;;14.90;99.90;;;;;;5070843;28;20202;-91
2021/04/27 10:06:25;;;;;;;15.38;13.85;;;15.10;99.90;;;;;;5069339;28;20221;-91
2021/04/27 10:08:52;;;;;;;16.95;15.20;;;15.20;99.90;;;;;;5070635;28;20221;-90
2021/04/27 10:11:19;;;;;;;16.73;15.02;;;15.20;99.90;;;;;;5073258;28;20198;-91
2021/04/27 10:13:46;;;;;;;18.63;16.73;;;15.20;99.90;;;;;;5073782;28;20205;-92
2021/04/27 10:16:15;;;;;;;21.05;18.40;;;15.10;99.90;;;;;;5067202;28;20218;-92
2021/04/27 10:18:42;;;;;;;17.80;16.08;;;14.90;99.90;;;;;;5068285;28;20545;-92
2021/04/27 10:21:11;;;;;;;19.52;17.60;;;14.80;99.90;;;;;;5066921;28;20212;-92
2021/04/27 10:23:39;;;;;;;19.73;17.00;;;14.80;99.90;;;;;;5066404;28;20199;-92
2021/04/27 10:26:07;;;;;;;17.52;15.63;;;14.80;99.90;;;;;;5071323;28;20217;-92
2021/04/27 10:28:58;;;;;;;18.23;16.45;;;14.90;99.90;;;;;;5073544;28;20657;-92
2021/04/27 10:31:26;;;;;;;16.08;13.35;;;15.00;99.90;;;;;;5067219;28;20202;-93
2021/04/27 10:34:05;;;;;;;18.00;16.08;;;15.30;99.90;;;;;;5065834;28;20202;-93
2021/04/27 10:36:33;;;;;;;15.32;13.73;;;15.60;99.90;;;;;;5072298;28;20198;-92
2021/04/27 10:39:01;;;;;;;15.68;14.07;;;15.80;99.90;;;;;;5073067;28;20580;-92
2021/04/27 10:41:48;;;;;;;14.73;13.32;;;16.00;99.90;;;;;;5065321;28;20206;-92
2021/04/27 10:44:16;;;;;;;17.25;12.65;;;16.30;99.90;;;;;;5061229;28;20210;-90
2021/04/27 10:47:02;;;;;;;14.38;12.95;;;16.60;99.90;;;;;;5061633;28;20222;-90
2021/04/27 10:49:38;;;;;;;17.33;15.18;;;17.20;99.90;;;;;;5069087;28;20213;-92
2021/04/27 10:52:06;;;;;;;15.05;13.55;;;17.30;99.90;;;;;;5060783;28;20202;-91
2021/04/27 10:54:38;;;;;;;16.77;14.43;;;17.20;99.90;;;;;;5069182;28;20229;-93
2021/04/27 10:57:17;;;;;;;13.90;12.45;;;17.10;99.90;;;;;;5070889;28;20209;-90
2021/04/27 10:59:53;;;;;;;12.40;11.15;;;17.30;99.90;;;;;;5069372;28;20256;-92
2021/04/27 11:02:24;;;;;;;14.40;11.18;;;17.80;99.90;;;;;;5064045;28;20210;-93
2021/04/27 11:04:55;;;;;;;15.90;11.68;;;18.00;99.90;;;;;;5074882;28;20224;-91
2021/04/27 11:07:37;;;;;;;17.10;12.68;;;17.70;99.90;;;;;;5066777;28;20225;-92
2021/04/27 11:10:25;;;;;;;15.25;10.88;;;17.40;99.90;;;;;;5068615;28;20248;-91
2021/04/27 11:12:57;;;;;;;11.23;9.20;;;17.20;99.90;;;;;;5061404;28;20202;-92
2021/04/27 11:15:27;;;;;;;10.93;8.45;;;17.40;99.90;;;;;;5065682;28;20699;-91
2021/04/27 11:18:02;;;;;;;9.30;7.10;;;17.70;99.90;;;;;;5067630;28;20216;-92
2021/04/27 11:20:54;;;;;;;7.32;6.63;;;17.70;99.90;;;;;;5064276;28;20202;-91
2021/04/27 11:23:46;;;;;;;10.32;8.40;;;17.80;99.90;;;;;;5061421;28;20218;-88
2021/04/27 11:26:41;;;;;;;9.40;7.13;;;17.80;99.90;;;;;;5065340;28;20304;-91
2021/04/27 11:29:12;;;;;;;10.45;7.78;;;17.80;99.90;;;;;;5054246;28;20220;-90
2021/04/27 11:31:57;;;;;;;12.77;8.25;;;17.90;99.90;;;;;;5062486;28;20256;-90
2021/04/27 11:34:25;;;;;;;9.60;7.72;;;17.90;99.90;;;;;;5066263;28;20562;-91
2021/04/27 11:36:52;;;;;;;9.77;7.90;;;17.80;99.90;;;;;;5062400;28;20202;-91
2021/04/27 11:39:22;;;;;;;9.68;7.75;;;17.50;99.90;;;;;;5061089;28;20224;-91
2021/04/27 11:41:56;;;;;;;8.00;6.90;;;17.30;99.90;;;;;;5072959;28;20211;-91
2021/04/27 11:44:30;;;;;;;7.60;6.80;;;17.50;99.90;;;;;;5065563;28;21020;-92
2021/04/27 11:47:00;;;;;;;12.82;7.88;;;17.70;99.90;;;;;;5073367;28;20210;-93
2021/04/27 11:49:50;;;;;;;7.85;7.05;;;18.00;99.90;;;;;;5071034;28;20365;-93
2021/04/27 11:52:48;;;;;;;9.95;7.18;;;18.40;99.90;;;;;;5075973;28;20201;-91
2021/04/27 11:55:21;;;;;;;10.00;7.05;;;18.40;99.90;;;;;;5072996;28;20206;-92
2021/04/27 11:57:52;;;;;;;9.00;6.93;;;18.10;99.90;;;;;;5073437;28;20198;-93
2021/04/27 12:00:21;;;;;;;8.45;7.57;;;18.00;99.90;;;;;;5064914;28;20210;-91
2021/04/27 12:02:48;;;;;;;10.07;7.03;;;17.80;99.90;;;;;;5067634;28;20225;-91
2021/04/27 12:05:18;;;;;;;11.15;7.30;;;18.10;99.90;;;;;;5074803;28;20290;-91
2021/04/27 12:07:46;;;;;;;8.35;7.47;;;18.00;99.90;;;;;;5069446;28;20317;-90
2021/04/27 12:10:13;;;;;;;8.45;7.57;;;17.70;99.90;;;;;;5067186;28;20213;-92
2021/04/27 12:12:46;;;;;;;10.60;6.47;;;17.40;99.90;;;;;;5061653;28;20241;-92
2021/04/27 12:15:13;;;;;;;9.63;6.15;;;17.40;99.90;;;;;;5069242;28;20200;-92
2021/04/27 12:17:40;;;;;;;9.48;7.43;;;17.80;99.90;;;;;;5067618;28;20274;-91
2021/04/27 12:20:12;;;;;;;7.88;6.63;;;17.80;99.90;;;;;;5072844;28;20206;-92
2021/04/27 12:22:48;;;;;;;9.20;6.47;;;17.60;99.90;;;;;;5079555;28;20224;-92
2021/04/27 12:25:18;;;;;;;7.53;6.70;;;17.60;99.90;;;;;;5088431;28;20282;-92
2021/04/27 12:27:48;;;;;;;7.25;6.35;;;17.60;99.90;;;;;;5077304;28;20278;-90
2021/04/27 12:30:19;;;;;;;16.02;7.35;;;17.50;99.90;;;;;;5070840;28;20693;-92
2021/04/27 12:32:56;;;;;;;8.82;7.78;;;17.30;99.90;;;;;;5071572;28;20292;-91
2021/04/27 12:35:25;;;;;;;8.90;7.35;;;17.10;99.90;;;;;;5069914;28;20217;-92
2021/04/27 12:38:04;;;;;;;9.38;8.45;;;17.00;99.90;;;;;;5065561;28;20201;-94
2021/04/27 12:40:35;;;;;;;8.88;6.78;;;17.20;99.90;;;;;;5067846;28;20207;-91